Weippe, ID (83553)

1:40 AM PST on February 13, 2016 (GMT -0800)
APRSWXNET | | Change Station
CLOSE
Current Station
Personal Weather Station
Location: Weippe, ID
Elevation: 3069 ft
Nearby Weather Stations

Elev 3069 ft 46.38 °N, 115.95 °W | Updated 33 minutes ago

Rain
Rain
37 °F
Feels Like 37 °F
N
0
Wind Variable Wind from NW
Gusts 0.0 mph

Today
High -- | Low -- °F
--% Chance of Precip.
Yesterday
High -- | Low -- °F
Precip. -- in
Pressure 30.16 in
Visibility 5.0 miles
Clouds Scattered Clouds 600 ft
Overcast 1300 ft
Windchill 37 °F
Dew Point 36 °F
Humidity 95%
Rainfall in
Snow Depth Not available.
6:50 AM 5:05 PM
Waxing Crescent, 29% visible
METAR KGIC 130935Z AUTO 10005KT 5SM SCT006 OVC013 03/02 A3016 RMK AO1 P0005
Pressure 30.16 in
Visibility 5.0 miles
Clouds Scattered Clouds 600 ft
Overcast 1300 ft
Windchill 37 °F
Dew Point 36 °F
Humidity 95%
Rainfall in
Snow Depth Not available.
6:50 AM 5:05 PM
Waxing Crescent, 29% visible
METAR KGIC 130935Z AUTO 10005KT 5SM SCT006 OVC013 03/02 A3016 RMK AO1 P0005

10-Day Weather Forecast

Almanac

Astronomy

Feb. 13, 2016 Rise Set
Actual Time
Civil Twilight
Nautical Twilight
Astronomical Twilight
Moon
Length of Visible Light
Length of Day
Tomorrow will be .
, % of the Moon is Illuminated

Today's Extremes

State Highs State Lows

Community

WunderPhotos

Upload Photos

1,892,536 photos uploaded!

WunderBlog® & News

Nearby

Air Quality

  Air Quality AQ Index Pollutant
Not available.

Snow Depth

Station Depth Elevation

Earthquake Activity

City Distance Mag. Time & Date
Minimum magnitude displayed is 2.5.

Coastal Water Temperatures

Place Temperature

Stations

Nearby Weather Stations

Station Location Temp. Windchill Dew Point Humidity Wind Precip. Elev Updated Type
                   

Watches & Warnings

There are currently no watches in effect.